Time;durP1;ratioP1;P1;durP2;ratioP2;P2;SDS_P1;SDS_P2;PMS_P1;PMS_P2;Temp;Humidity;BMP_temperature;BMP_pressure;BME280_temperature;BME280_humidity;BME280_pressure;Samples;Min_cycle;Max_cycle;Signal;HPM_P1;HPM_P2
2022/05/31 00:01:54;;;;;;;4.10;1.00;;;12.40;93.30;;;;;;5103233;28;20231;-69
2022/05/31 00:04:20;;;;;;;5.47;1.73;;;12.40;93.40;;;;;;5104025;28;20365;-69
2022/05/31 00:06:46;;;;;;;5.13;1.33;;;12.40;93.50;;;;;;5103630;28;20021;-69
2022/05/31 00:09:12;;;;;;;5.13;1.33;;;12.40;93.40;;;;;;5082878;28;20036;-69
2022/05/31 00:11:40;;;;;;;4.72;1.40;;;12.50;93.50;;;;;;5066460;28;20216;-68
2022/05/31 00:14:06;;;;;;;3.75;1.17;;;12.50;93.40;;;;;;5084096;28;20012;-68
2022/05/31 00:16:35;;;;;;;3.17;1.27;;;12.50;93.40;;;;;;5066655;28;20024;-69
2022/05/31 00:19:04;;;;;;;7.70;1.40;;;12.50;93.60;;;;;;5083049;28;20044;-68
2022/05/31 00:21:53;;;;;;;5.05;1.38;;;12.50;93.70;;;;;;5067146;28;20027;-69
2022/05/31 00:24:21;;;;;;;12.13;1.58;;;12.50;93.70;;;;;;5066735;28;20021;-68
2022/05/31 00:26:47;;;;;;;4.65;1.17;;;12.60;93.70;;;;;;5067913;28;20099;-69
2022/05/31 00:29:17;;;;;;;5.35;1.30;;;12.60;93.60;;;;;;5123581;28;20015;-69
2022/05/31 00:31:45;;;;;;;4.28;1.35;;;12.60;93.70;;;;;;5123995;28;20024;-68
2022/05/31 00:34:12;;;;;;;5.20;1.30;;;12.60;93.80;;;;;;5123022;28;20023;-69
2022/05/31 00:36:42;;;;;;;4.45;1.20;;;12.60;93.90;;;;;;5106569;28;20046;-69
2022/05/31 00:39:08;;;;;;;5.20;1.10;;;12.60;93.90;;;;;;5123990;28;20023;-68
2022/05/31 00:41:35;;;;;;;8.45;1.55;;;12.60;94.00;;;;;;5124470;28;20019;-69
2022/05/31 00:44:04;;;;;;;8.55;1.10;;;12.50;94.10;;;;;;5124393;28;20057;-69
2022/05/31 00:46:56;;;;;;;5.80;1.27;;;12.60;94.10;;;;;;5101451;28;20028;-69
2022/05/31 00:49:35;;;;;;;4.60;1.15;;;12.60;94.10;;;;;;5085913;28;20044;-69
2022/05/31 00:52:09;;;;;;;6.20;1.25;;;12.60;93.90;;;;;;5103772;28;20023;-69
2022/05/31 00:54:39;;;;;;;8.75;1.33;;;12.60;93.90;;;;;;5103383;28;20024;-69
2022/05/31 00:57:05;;;;;;;6.18;1.40;;;12.70;93.80;;;;;;5101401;28;20016;-69
2022/05/31 00:59:41;;;;;;;5.65;1.20;;;12.70;93.90;;;;;;5102700;28;20015;-69
2022/05/31 01:02:07;;;;;;;9.15;1.05;;;12.70;93.70;;;;;;5103660;28;20083;-69
2022/05/31 01:04:56;;;;;;;4.53;1.42;;;12.60;93.80;;;;;;5103274;28;20020;-69
2022/05/31 01:07:22;;;;;;;5.40;1.50;;;12.60;93.90;;;;;;5098429;28;20073;-69
2022/05/31 01:09:48;;;;;;;9.88;1.30;;;12.60;94.00;;;;;;5081977;28;20016;-67
2022/05/31 01:12:16;;;;;;;7.60;1.48;;;12.60;94.00;;;;;;5083615;28;20025;-67
2022/05/31 01:14:42;;;;;;;7.45;1.67;;;12.70;93.90;;;;;;5081792;28;20234;-67
2022/05/31 01:17:18;;;;;;;5.35;1.23;;;12.60;93.80;;;;;;5083215;28;20024;-68
2022/05/31 01:20:00;;;;;;;5.72;1.58;;;12.60;93.80;;;;;;5082264;28;20027;-68
2022/05/31 01:22:37;;;;;;;11.93;1.30;;;12.70;93.80;;;;;;5082186;28;20047;-68
2022/05/31 01:25:18;;;;;;;5.50;1.48;;;12.70;93.80;;;;;;5082688;28;20052;-68
2022/05/31 01:28:00;;;;;;;5.55;1.58;;;12.60;93.80;;;;;;5098925;28;20028;-68
2022/05/31 01:30:30;;;;;;;7.07;1.65;;;12.50;93.90;;;;;;5102115;28;20047;-67
2022/05/31 01:33:03;;;;;;;5.68;1.23;;;12.50;93.80;;;;;;5102218;28;20028;-68
2022/05/31 01:35:32;;;;;;;4.97;1.45;;;12.50;94.00;;;;;;5101957;28;20024;-68
2022/05/31 01:38:05;;;;;;;3.78;1.38;;;12.50;93.90;;;;;;5085207;28;20024;-68
2022/05/31 01:40:57;;;;;;;5.05;1.17;;;12.50;93.80;;;;;;5102348;28;20215;-68
2022/05/31 01:43:26;;;;;;;6.88;1.50;;;12.60;93.80;;;;;;5102131;28;20043;-68
2022/05/31 01:45:58;;;;;;;7.53;1.42;;;12.60;93.60;;;;;;5102035;28;20020;-68
2022/05/31 01:48:27;;;;;;;5.93;1.13;;;12.70;93.50;;;;;;5081689;28;20025;-68
2022/05/31 01:50:53;;;;;;;3.67;1.30;;;12.70;93.50;;;;;;5082705;28;20049;-68
2022/05/31 01:53:18;;;;;;;8.45;1.63;;;12.70;93.70;;;;;;5081698;28;20027;-68
2022/05/31 01:55:48;;;;;;;4.60;1.10;;;12.60;93.80;;;;;;5101743;28;20022;-68
2022/05/31 01:58:19;;;;;;;5.97;1.40;;;12.60;94.00;;;;;;5100169;28;20051;-68
2022/05/31 02:00:48;;;;;;;6.90;1.50;;;12.50;94.20;;;;;;5102371;28;20020;-68
2022/05/31 02:03:17;;;;;;;3.67;1.10;;;12.40;94.40;;;;;;5104814;28;20020;-68
2022/05/31 02:05:44;;;;;;;3.45;1.40;;;12.40;94.40;;;;;;5105303;28;20172;-68
2022/05/31 02:08:10;;;;;;;4.25;1.67;;;12.40;94.60;;;;;;5094285;28;20195;-68
2022/05/31 02:10:35;;;;;;;3.25;1.38;;;12.30;94.70;;;;;;5068473;28;20031;-68
2022/05/31 02:13:01;;;;;;;2.63;1.20;;;12.30;94.90;;;;;;5086376;28;20017;-68
2022/05/31 02:15:27;;;;;;;7.47;1.30;;;12.20;95.10;;;;;;5084962;28;20189;-68
2022/05/31 02:17:53;;;;;;;5.00;1.88;;;12.20;95.30;;;;;;5086068;28;20020;-68
2022/05/31 02:20:18;;;;;;;4.15;1.27;;;12.10;95.30;;;;;;5086439;28;20025;-67
2022/05/31 02:22:44;;;;;;;3.45;1.17;;;12.00;95.30;;;;;;5085240;28;20021;-68
2022/05/31 02:25:10;;;;;;;5.82;1.48;;;11.90;95.00;;;;;;5084502;28;20311;-67
2022/05/31 02:27:36;;;;;;;2.83;1.10;;;11.80;95.10;;;;;;5101640;28;20024;-68
2022/05/31 02:30:02;;;;;;;3.40;1.10;;;11.70;94.70;;;;;;5105287;28;20016;-68
2022/05/31 02:32:28;;;;;;;2.00;0.90;;;11.70;94.60;;;;;;5088089;28;20020;-68
2022/05/31 02:34:54;;;;;;;2.08;1.13;;;11.60;94.60;;;;;;5104917;28;20030;-68
2022/05/31 02:37:23;;;;;;;4.65;1.42;;;11.70;94.40;;;;;;5104975;28;20042;-68
2022/05/31 02:39:49;;;;;;;4.40;1.13;;;11.70;94.20;;;;;;5104728;28;20024;-68
2022/05/31 02:42:16;;;;;;;3.63;1.33;;;11.70;94.20;;;;;;5105081;28;20346;-68
2022/05/31 02:44:42;;;;;;;5.03;1.55;;;11.60;94.20;;;;;;5106093;28;20020;-68
2022/05/31 02:47:08;;;;;;;3.85;1.17;;;11.60;94.30;;;;;;5104287;28;20027;-68
2022/05/31 02:49:36;;;;;;;2.75;1.10;;;11.60;94.20;;;;;;5087745;28;20027;-68
2022/05/31 02:52:02;;;;;;;3.60;1.20;;;11.60;94.20;;;;;;5104633;28;20035;-68
2022/05/31 02:54:28;;;;;;;3.42;1.00;;;11.60;94.20;;;;;;5104555;28;20053;-68
2022/05/31 02:56:54;;;;;;;3.35;1.15;;;11.50;94.20;;;;;;5084253;28;20307;-68
2022/05/31 02:59:20;;;;;;;3.72;1.00;;;11.50;94.20;;;;;;5082645;28;20025;-68
2022/05/31 03:01:45;;;;;;;4.35;1.25;;;11.50;94.10;;;;;;5085592;28;20093;-68
2022/05/31 03:04:14;;;;;;;4.00;1.60;;;11.40;94.10;;;;;;5084155;28;20035;-69
2022/05/31 03:06:40;;;;;;;3.67;1.15;;;11.20;94.30;;;;;;5084279;28;20025;-68
2022/05/31 03:09:07;;;;;;;2.08;1.10;;;11.20;94.40;;;;;;5067084;28;20073;-68
2022/05/31 03:11:39;;;;;;;4.95;1.45;;;11.20;94.30;;;;;;5100935;28;20303;-68
2022/05/31 03:14:13;;;;;;;3.20;1.33;;;11.20;94.20;;;;;;5100258;28;20393;-68
2022/05/31 03:16:42;;;;;;;2.50;1.00;;;11.20;94.30;;;;;;5084627;28;20308;-68
2022/05/31 03:19:13;;;;;;;2.45;1.05;;;11.20;94.50;;;;;;5085218;28;20020;-68
2022/05/31 03:21:48;;;;;;;3.47;0.90;;;11.20;94.60;;;;;;5101180;28;20079;-68
2022/05/31 03:24:19;;;;;;;5.10;1.33;;;11.10;94.70;;;;;;5085063;28;20088;-68
2022/05/31 03:26:48;;;;;;;3.83;1.40;;;11.10;94.90;;;;;;5102375;28;20063;-68
2022/05/31 03:29:14;;;;;;;6.28;1.20;;;11.00;95.30;;;;;;5124015;28;20095;-68
2022/05/31 03:31:40;;;;;;;2.78;1.10;;;10.90;95.60;;;;;;5107366;28;20031;-68
2022/05/31 03:34:06;;;;;;;2.38;1.05;;;10.90;95.90;;;;;;5107208;28;20047;-68
2022/05/31 03:36:32;;;;;;;4.82;1.10;;;10.90;96.00;;;;;;5106955;28;20024;-68
2022/05/31 03:38:57;;;;;;;4.22;1.15;;;10.90;96.40;;;;;;5124283;28;20074;-69
2022/05/31 03:41:23;;;;;;;5.10;1.23;;;10.90;96.10;;;;;;5124068;28;20302;-67
2022/05/31 03:43:49;;;;;;;2.80;1.50;;;11.00;95.90;;;;;;5124024;28;20027;-67
2022/05/31 03:46:15;;;;;;;3.53;0.93;;;11.10;95.60;;;;;;5120659;28;20020;-67
2022/05/31 03:48:41;;;;;;;6.18;1.35;;;11.10;95.50;;;;;;5104596;28;20028;-67
2022/05/31 03:51:10;;;;;;;2.30;1.40;;;11.10;95.50;;;;;;5086614;28;20108;-67
2022/05/31 03:53:36;;;;;;;2.22;1.00;;;11.10;95.40;;;;;;5110225;28;20076;-67
2022/05/31 03:56:04;;;;;;;2.55;0.85;;;11.20;95.40;;;;;;5118592;28;20016;-67
2022/05/31 03:58:31;;;;;;;2.75;1.25;;;11.20;95.30;;;;;;5101401;28;20023;-67
2022/05/31 04:00:57;;;;;;;3.35;1.77;;;11.20;95.50;;;;;;5104396;28;20020;-67
2022/05/31 04:03:24;;;;;;;2.83;1.40;;;11.20;95.60;;;;;;5104328;28;20238;-67
2022/05/31 04:05:50;;;;;;;2.75;0.95;;;11.20;95.80;;;;;;5104423;28;20024;-67
2022/05/31 04:08:15;;;;;;;1.63;0.80;;;11.20;96.60;;;;;;5091868;28;20051;-69
2022/05/31 04:10:43;;;;;;;1.20;1.00;;;11.20;97.00;;;;;;5084135;28;20020;-68
2022/05/31 04:13:10;;;;;;;2.58;1.10;;;11.20;97.20;;;;;;5082835;28;20320;-68
2022/05/31 04:15:39;;;;;;;6.32;1.27;;;11.20;97.40;;;;;;5082901;28;20027;-68
2022/05/31 04:18:08;;;;;;;6.10;1.90;;;11.30;97.30;;;;;;5082572;28;20019;-68
2022/05/31 04:20:37;;;;;;;4.07;1.30;;;11.40;97.30;;;;;;5083003;28;20118;-68
2022/05/31 04:25:49;;;;;;;3.28;1.30;;;11.30;96.70;;;;;;5083602;28;20029;-68
2022/05/31 04:28:15;;;;;;;5.03;1.13;;;11.40;96.80;;;;;;5103266;28;20355;-68
2022/05/31 04:30:45;;;;;;;2.78;1.13;;;11.50;96.70;;;;;;5103803;28;20024;-67
2022/05/31 04:33:11;;;;;;;3.47;1.15;;;11.50;96.20;;;;;;5103956;28;20376;-68
2022/05/31 04:35:36;;;;;;;3.78;1.20;;;11.40;96.20;;;;;;5102709;28;20020;-68
2022/05/31 04:38:02;;;;;;;1.77;0.95;;;11.40;96.20;;;;;;5102390;28;20016;-68
2022/05/31 04:40:29;;;;;;;5.35;1.27;;;11.50;96.20;;;;;;5102467;28;20215;-68
2022/05/31 04:42:54;;;;;;;1.77;0.98;;;11.40;96.20;;;;;;5103916;28;20027;-68
2022/05/31 04:45:20;;;;;;;5.15;1.17;;;11.40;95.60;;;;;;5103799;28;20079;-68
2022/05/31 04:47:46;;;;;;;4.53;1.45;;;11.40;95.60;;;;;;5102102;28;20272;-68
2022/05/31 04:50:12;;;;;;;4.00;1.52;;;11.40;95.60;;;;;;5103176;28;20083;-68
2022/05/31 04:52:38;;;;;;;5.20;1.10;;;11.50;95.30;;;;;;5102661;28;20031;-68
2022/05/31 04:55:04;;;;;;;4.30;1.00;;;11.50;95.30;;;;;;5085941;28;20223;-68
2022/05/31 04:57:30;;;;;;;3.08;0.90;;;11.60;95.40;;;;;;5103515;28;20032;-68
2022/05/31 04:59:58;;;;;;;3.33;0.95;;;11.60;95.20;;;;;;5101159;28;20023;-68
2022/05/31 05:02:24;;;;;;;3.22;1.10;;;11.70;94.80;;;;;;5102245;28;20315;-68
2022/05/31 05:04:50;;;;;;;8.98;1.05;;;11.80;94.60;;;;;;5102313;28;20068;-68
2022/05/31 05:07:15;;;;;;;5.82;1.08;;;11.70;94.70;;;;;;5100159;28;20032;-68
2022/05/31 05:09:41;;;;;;;5.55;1.10;;;11.80;94.60;;;;;;5081903;28;20024;-68
2022/05/31 05:12:07;;;;;;;2.33;0.85;;;11.80;94.60;;;;;;5083361;28;20024;-68
2022/05/31 05:14:32;;;;;;;5.00;1.23;;;11.90;94.50;;;;;;5065518;28;20055;-69
2022/05/31 05:16:58;;;;;;;3.45;1.27;;;11.90;94.60;;;;;;5082945;28;20017;-68
2022/05/31 05:19:24;;;;;;;2.30;1.05;;;12.00;94.40;;;;;;5081880;28;20025;-68
2022/05/31 05:21:54;;;;;;;3.42;1.13;;;12.10;94.50;;;;;;5083502;28;20212;-68
2022/05/31 05:24:20;;;;;;;3.15;1.10;;;12.00;94.40;;;;;;5081998;28;20032;-68
2022/05/31 05:26:47;;;;;;;4.38;0.85;;;12.00;94.80;;;;;;5092253;28;20027;-68
2022/05/31 05:31:58;;;;;;;5.07;1.55;;;11.90;96.40;;;;;;5088406;28;20027;-68
2022/05/31 05:34:23;;;;;;;7.78;1.33;;;11.70;97.40;;;;;;5085354;28;20031;-68
2022/05/31 05:36:49;;;;;;;4.57;1.60;;;11.60;98.20;;;;;;5103375;28;20038;-68
2022/05/31 05:39:15;;;;;;;2.47;1.48;;;11.50;99.00;;;;;;5088710;28;20047;-68
2022/05/31 05:41:41;;;;;;;6.63;1.90;;;11.40;99.40;;;;;;5107402;28;20073;-68
2022/05/31 05:44:07;;;;;;;9.40;2.30;;;11.30;99.90;;;;;;5089417;28;20077;-68
2022/05/31 05:46:33;;;;;;;7.15;1.80;;;11.40;99.90;;;;;;5088556;28;20038;-69
2022/05/31 05:48:59;;;;;;;8.80;2.50;;;11.30;99.90;;;;;;5105912;28;20303;-68
2022/05/31 05:51:28;;;;;;;8.60;1.70;;;11.30;99.90;;;;;;5105512;28;20208;-68
2022/05/31 05:53:55;;;;;;;7.55;2.08;;;11.40;99.90;;;;;;5072179;28;20028;-69
2022/05/31 05:56:22;;;;;;;5.97;1.80;;;11.50;99.90;;;;;;5085560;28;20028;-69
2022/05/31 05:58:48;;;;;;;8.60;1.85;;;11.50;99.90;;;;;;5085152;28;20029;-69
2022/05/31 06:01:23;;;;;;;2.88;1.85;;;11.70;99.90;;;;;;5083229;28;20390;-69
2022/05/31 06:03:54;;;;;;;5.30;2.35;;;11.80;99.90;;;;;;5102126;28;20026;-69
2022/05/31 06:06:24;;;;;;;5.57;2.00;;;11.70;99.90;;;;;;5086315;28;20034;-69
2022/05/31 06:09:02;;;;;;;3.63;1.70;;;11.70;99.90;;;;;;5101157;28;20035;-69
2022/05/31 06:11:45;;;;;;;9.00;1.95;;;11.70;99.90;;;;;;5088394;28;20028;-69
2022/05/31 06:14:32;;;;;;;3.90;1.85;;;11.70;99.90;;;;;;5088774;28;20326;-69
2022/05/31 06:17:04;;;;;;;7.88;1.88;;;11.60;99.90;;;;;;5106451;28;20016;-69
2022/05/31 06:19:35;;;;;;;4.25;1.50;;;11.70;99.90;;;;;;5106533;28;20019;-68
2022/05/31 06:22:03;;;;;;;3.05;1.60;;;11.90;99.90;;;;;;5105410;28;20016;-69
2022/05/31 06:24:31;;;;;;;2.97;1.30;;;11.90;99.90;;;;;;5106565;28;20256;-69
2022/05/31 06:26:57;;;;;;;5.60;1.30;;;12.00;99.90;;;;;;5116944;28;20027;-68
2022/05/31 06:29:23;;;;;;;6.35;1.73;;;12.10;99.90;;;;;;5125228;28;20039;-69
2022/05/31 06:31:48;;;;;;;2.30;1.50;;;12.30;99.90;;;;;;5125400;28;20027;-68
2022/05/31 06:34:16;;;;;;;4.53;1.65;;;12.20;99.10;;;;;;5126637;28;20035;-69
2022/05/31 06:36:43;;;;;;;5.43;1.50;;;12.10;99.10;;;;;;5108704;28;20026;-67
2022/05/31 06:39:09;;;;;;;2.92;1.27;;;12.00;99.40;;;;;;5124994;28;20023;-68
2022/05/31 06:41:35;;;;;;;4.53;1.45;;;11.90;99.40;;;;;;5126657;28;20306;-68
2022/05/31 06:44:01;;;;;;;2.67;1.67;;;11.70;99.90;;;;;;5107922;28;20023;-69
2022/05/31 06:46:27;;;;;;;4.38;1.60;;;11.60;99.90;;;;;;5125131;28;20292;-69
2022/05/31 06:48:53;;;;;;;3.38;1.40;;;11.50;99.90;;;;;;5124563;28;20333;-69
2022/05/31 06:56:59;;;;;;;4.78;1.38;;;11.30;99.90;;;;;;5104905;28;20008;-70
2022/05/31 06:59:24;;;;;;;4.90;2.00;;;11.30;99.90;;;;;;5104589;28;20031;-69
2022/05/31 07:02:03;;;;;;;4.15;1.48;;;11.30;99.90;;;;;;5104079;28;20074;-69
2022/05/31 07:04:29;;;;;;;6.18;2.20;;;11.30;99.90;;;;;;5104245;28;20222;-70
2022/05/31 07:06:54;;;;;;;4.53;1.65;;;11.10;99.90;;;;;;5087184;28;20020;-68
2022/05/31 07:09:20;;;;;;;3.17;1.70;;;11.20;99.90;;;;;;5084494;28;20215;-69
2022/05/31 07:11:46;;;;;;;3.67;1.40;;;11.20;99.90;;;;;;5083959;28;20028;-69
2022/05/31 07:14:11;;;;;;;3.72;1.58;;;11.30;99.90;;;;;;5083855;28;20040;-70
2022/05/31 07:16:37;;;;;;;5.47;1.60;;;11.30;99.90;;;;;;5084194;28;20296;-69
2022/05/31 07:19:03;;;;;;;3.95;1.20;;;11.50;99.90;;;;;;5085064;28;20028;-70
2022/05/31 07:21:29;;;;;;;4.03;1.00;;;11.60;99.90;;;;;;5084971;28;20031;-70
2022/05/31 07:23:54;;;;;;;7.53;1.35;;;11.50;99.90;;;;;;5083671;28;20268;-70
2022/05/31 07:26:20;;;;;;;4.72;1.35;;;11.50;99.90;;;;;;5094785;28;20023;-71
2022/05/31 07:28:46;;;;;;;5.07;1.58;;;11.60;99.90;;;;;;5107087;28;20329;-69
2022/05/31 07:31:12;;;;;;;3.55;1.35;;;11.80;99.90;;;;;;5124882;28;20055;-69
2022/05/31 07:33:38;;;;;;;3.20;1.50;;;12.00;99.90;;;;;;5124105;28;20098;-70
2022/05/31 07:36:05;;;;;;;2.95;1.60;;;12.20;99.90;;;;;;5107380;28;20022;-69
2022/05/31 07:38:31;;;;;;;4.95;1.48;;;12.30;99.90;;;;;;5124074;28;20060;-70
2022/05/31 07:40:56;;;;;;;1.55;1.15;;;12.50;99.90;;;;;;5106695;28;20020;-69
2022/05/31 07:43:25;;;;;;;2.35;1.02;;;12.40;99.90;;;;;;5124164;28;20024;-71
2022/05/31 07:46:10;;;;;;;2.60;1.20;;;12.40;99.90;;;;;;5124976;28;20034;-69
2022/05/31 07:48:38;;;;;;;2.90;1.13;;;12.40;99.90;;;;;;5050416;28;20031;-70
2022/05/31 07:51:04;;;;;;;1.63;0.95;;;12.30;99.90;;;;;;5083815;28;20393;-70
2022/05/31 07:53:31;;;;;;;4.28;0.90;;;12.40;99.90;;;;;;5084296;28;20016;-70
2022/05/31 07:56:06;;;;;;;1.58;0.88;;;12.20;99.90;;;;;;5069170;28;20047;-70
2022/05/31 07:58:32;;;;;;;2.10;0.60;;;12.20;99.90;;;;;;5082642;28;20308;-69
2022/05/31 08:01:01;;;;;;;2.45;0.75;;;12.20;99.90;;;;;;5083586;28;20027;-69
2022/05/31 08:03:27;;;;;;;1.30;0.77;;;12.10;99.90;;;;;;5080936;28;20058;-69
2022/05/31 08:05:53;;;;;;;1.83;0.93;;;12.00;99.90;;;;;;5100087;28;20062;-69
2022/05/31 08:08:19;;;;;;;1.42;0.93;;;12.00;99.90;;;;;;5095873;28;20016;-69
2022/05/31 08:10:45;;;;;;;2.58;0.98;;;12.00;99.90;;;;;;5103270;28;20086;-68
2022/05/31 08:13:11;;;;;;;0.98;0.80;;;12.10;99.90;;;;;;5103127;28;20028;-69
2022/05/31 08:15:36;;;;;;;4.40;0.88;;;12.20;99.90;;;;;;5103040;28;20028;-71
2022/05/31 08:18:02;;;;;;;0.77;0.70;;;12.30;99.90;;;;;;5103318;28;20020;-70
2022/05/31 08:20:28;;;;;;;1.45;0.82;;;12.50;99.90;;;;;;5103039;28;20047;-69
2022/05/31 08:22:54;;;;;;;2.45;0.82;;;12.50;99.90;;;;;;5102916;28;20020;-70
2022/05/31 08:25:19;;;;;;;2.38;0.77;;;12.60;99.90;;;;;;5103006;28;20226;-70
2022/05/31 08:27:45;;;;;;;0.63;0.63;;;12.70;99.90;;;;;;5121589;28;20083;-71
2022/05/31 08:30:11;;;;;;;2.40;0.80;;;12.80;99.90;;;;;;5123102;28;20362;-69
2022/05/31 08:32:37;;;;;;;1.13;0.90;;;12.80;99.70;;;;;;5122990;28;20031;-70
2022/05/31 08:35:06;;;;;;;3.00;1.00;;;12.80;99.80;;;;;;5123260;28;20023;-69
2022/05/31 08:37:31;;;;;;;1.55;0.93;;;12.90;99.90;;;;;;5106286;28;20023;-69
2022/05/31 08:39:57;;;;;;;3.45;0.90;;;13.00;99.10;;;;;;5122736;28;20066;-69
2022/05/31 08:42:40;;;;;;;3.72;0.73;;;13.20;99.20;;;;;;5123090;28;20023;-70
2022/05/31 08:45:26;;;;;;;2.58;0.73;;;13.20;98.70;;;;;;5122945;28;20108;-68
2022/05/31 08:48:02;;;;;;;3.00;1.10;;;13.30;98.70;;;;;;5106924;28;20176;-69
2022/05/31 08:53:42;;;;;;;7.75;1.48;;;13.70;98.30;;;;;;5088618;28;20042;-71
2022/05/31 08:59:14;;;;;;;1.20;0.80;;;14.00;96.70;;;;;;5102547;28;20062;-70
2022/05/31 09:01:49;;;;;;;2.78;0.80;;;14.10;96.70;;;;;;5085678;28;20091;-70
2022/05/31 09:04:25;;;;;;;6.93;0.80;;;14.30;94.80;;;;;;5100421;28;20023;-68
2022/05/31 09:06:58;;;;;;;5.82;1.02;;;14.50;95.40;;;;;;5086206;28;20315;-69
2022/05/31 09:09:26;;;;;;;2.42;1.00;;;14.70;95.50;;;;;;5081874;28;20212;-69
2022/05/31 09:12:05;;;;;;;3.25;0.65;;;15.10;95.10;;;;;;5086260;28;20017;-70
2022/05/31 09:15:09;;;;;;;3.22;0.80;;;15.10;92.50;;;;;;5087120;28;20024;-69
2022/05/31 09:18:03;;;;;;;2.90;1.10;;;14.90;93.30;;;;;;5086713;28;20092;-70
2022/05/31 09:20:53;;;;;;;3.90;0.90;;;14.80;93.50;;;;;;5056841;28;20095;-69
2022/05/31 09:23:26;;;;;;;8.30;1.40;;;15.00;94.60;;;;;;5086174;28;20021;-71
2022/05/31 09:26:17;;;;;;;3.45;1.50;;;15.30;93.70;;;;;;5071787;28;20028;-71
2022/05/31 09:28:51;;;;;;;7.10;1.30;;;15.40;92.90;;;;;;5092127;28;20315;-70
2022/05/31 09:31:44;;;;;;;4.00;0.98;;;15.30;93.60;;;;;;5107417;28;20027;-71
2022/05/31 09:34:49;;;;;;;5.60;1.13;;;15.50;92.80;;;;;;5091301;28;20038;-69
2022/05/31 09:37:44;;;;;;;3.60;1.20;;;15.60;92.10;;;;;;5106526;28;20024;-70
2022/05/31 09:40:36;;;;;;;5.60;1.20;;;15.60;91.80;;;;;;5091415;28;20020;-70
2022/05/31 09:43:15;;;;;;;4.10;0.90;;;15.90;91.40;;;;;;5088597;28;20020;-69
2022/05/31 09:46:02;;;;;;;1.83;0.70;;;16.00;91.10;;;;;;5089105;28;20243;-70
2022/05/31 09:48:28;;;;;;;9.02;1.52;;;16.20;90.10;;;;;;5085556;28;20250;-70
2022/05/31 09:51:09;;;;;;;6.47;1.63;;;16.10;91.20;;;;;;5085400;28;20053;-69
2022/05/31 09:59:12;;;;;;;4.35;1.27;;;16.60;90.80;;;;;;5086210;28;20046;-71
2022/05/31 10:01:44;;;;;;;3.28;1.13;;;16.60;91.10;;;;;;5085277;28;20381;-70
2022/05/31 10:04:13;;;;;;;2.40;1.45;;;16.40;90.00;;;;;;5083279;28;20020;-69
2022/05/31 10:07:01;;;;;;;2.78;1.50;;;16.30;90.40;;;;;;5086513;28;20308;-69
2022/05/31 10:09:36;;;;;;;3.85;1.25;;;16.00;90.60;;;;;;5054619;28;20051;-69
2022/05/31 10:12:26;;;;;;;2.72;1.27;;;15.80;91.10;;;;;;5086445;28;20055;-70
2022/05/31 10:14:54;;;;;;;4.15;1.10;;;15.70;91.20;;;;;;5084845;28;20084;-70
2022/05/31 10:17:42;;;;;;;5.93;2.13;;;15.50;91.30;;;;;;5085436;28;20016;-70
2022/05/31 10:20:19;;;;;;;2.20;1.80;;;15.40;92.50;;;;;;5068320;28;20043;-70
2022/05/31 10:22:51;;;;;;;3.63;2.60;;;15.40;93.20;;;;;;5083909;28;20034;-69
2022/05/31 10:25:20;;;;;;;1.60;1.10;;;15.40;93.30;;;;;;5085091;28;20024;-70
2022/05/31 10:27:46;;;;;;;1.90;1.27;;;15.30;91.40;;;;;;5119608;28;20250;-69
2022/05/31 10:30:19;;;;;;;7.47;1.55;;;15.10;91.90;;;;;;5126913;28;20024;-70
2022/05/31 10:32:51;;;;;;;1.40;1.08;;;15.00;92.90;;;;;;5126692;28;20027;-70
2022/05/31 10:35:22;;;;;;;6.25;1.27;;;14.90;92.10;;;;;;5125635;28;20027;-69
2022/05/31 10:37:57;;;;;;;4.60;1.60;;;14.70;91.80;;;;;;5126643;28;20230;-69
2022/05/31 10:40:37;;;;;;;1.95;1.10;;;14.80;91.90;;;;;;5109356;28;20036;-70
2022/05/31 10:43:27;;;;;;;1.42;1.00;;;15.00;91.20;;;;;;5125094;28;20382;-69
2022/05/31 10:45:55;;;;;;;2.97;1.33;;;15.40;90.90;;;;;;5096925;28;20026;-70
2022/05/31 10:48:21;;;;;;;4.05;1.95;;;15.50;91.70;;;;;;5087923;28;20020;-70
2022/05/31 10:51:11;;;;;;;3.72;1.85;;;15.70;92.10;;;;;;5104702;28;20074;-69
2022/05/31 10:54:04;;;;;;;7.95;1.77;;;15.90;92.10;;;;;;5104783;28;20087;-70
2022/05/31 10:56:56;;;;;;;3.90;1.45;;;16.20;89.60;;;;;;5073522;28;20311;-71
2022/05/31 10:59:27;;;;;;;;;;;16.30;88.10;;;;;;5084781;28;20326;-70
2022/05/31 11:02:20;;;;;;;5.05;2.03;;;16.40;87.70;;;;;;5084472;28;19901;-68
2022/05/31 11:05:01;;;;;;;3.42;2.05;;;16.10;87.90;;;;;;5069022;28;20021;-69
2022/05/31 11:14:26;;;;;;;4.07;1.48;;;15.30;91.90;;;;;;5090206;28;20103;-72
2022/05/31 11:17:22;;;;;;;2.22;1.08;;;14.80;93.20;;;;;;5105378;28;20072;-70
2022/05/31 11:20:27;;;;;;;2.40;0.90;;;14.60;93.00;;;;;;5104303;28;20031;-69
2022/05/31 11:23:31;;;;;;;2.13;1.20;;;14.90;94.00;;;;;;5104475;28;20021;-70
2022/05/31 11:26:28;;;;;;;2.10;0.98;;;15.40;92.90;;;;;;5106514;28;20015;-70
2022/05/31 11:29:33;;;;;;;2.97;1.10;;;15.60;91.60;;;;;;5092291;28;20049;-69
2022/05/31 11:32:39;;;;;;;0.70;0.70;;;15.70;90.40;;;;;;5113386;28;20024;-69
2022/05/31 11:35:36;;;;;;;5.07;1.17;;;15.80;88.90;;;;;;5109863;28;20279;-70
2022/05/31 11:38:08;;;;;;;6.30;1.30;;;16.00;91.70;;;;;;5109706;28;20098;-71
2022/05/31 11:40:52;;;;;;;1.83;1.10;;;16.00;91.60;;;;;;5124302;28;20214;-71
2022/05/31 11:43:48;;;;;;;6.53;1.90;;;16.10;88.90;;;;;;5123937;28;20053;-69
2022/05/31 11:46:27;;;;;;;4.35;1.80;;;16.50;90.40;;;;;;5120540;28;20279;-70
2022/05/31 11:49:16;;;;;;;16.70;2.63;;;16.70;90.40;;;;;;5103841;28;20026;-70
2022/05/31 11:52:24;;;;;;;4.18;2.35;;;17.00;90.60;;;;;;5089064;28;20047;-70
2022/05/31 11:55:28;;;;;;;8.55;2.42;;;17.00;91.10;;;;;;5092869;28;20020;-69
2022/05/31 11:58:19;;;;;;;5.90;1.98;;;16.90;89.90;;;;;;5083534;28;20032;-70
2022/05/31 12:01:04;;;;;;;9.65;2.53;;;16.70;90.40;;;;;;5070157;28;20215;-71
2022/05/31 12:04:10;;;;;;;6.85;2.08;;;16.80;90.20;;;;;;5050095;28;20044;-70
2022/05/31 12:07:04;;;;;;;3.42;2.53;;;17.00;90.90;;;;;;5056478;28;20252;-70
2022/05/31 12:09:42;;;;;;;3.47;2.30;;;16.80;90.50;;;;;;5069047;28;20023;-70
2022/05/31 12:12:17;;;;;;;5.22;2.42;;;16.70;90.60;;;;;;5066433;28;20035;-70
2022/05/31 12:14:50;;;;;;;8.75;2.35;;;16.90;90.90;;;;;;5082334;28;20043;-71
2022/05/31 12:17:22;;;;;;;6.00;2.22;;;17.10;89.00;;;;;;5083759;28;20083;-70
2022/05/31 12:20:18;;;;;;;4.00;2.00;;;17.10;90.30;;;;;;5084375;28;20016;-70
2022/05/31 12:22:56;;;;;;;6.55;2.45;;;17.10;88.80;;;;;;5070454;28;20095;-71
2022/05/31 12:25:27;;;;;;;3.72;2.13;;;17.10;88.70;;;;;;5082673;28;20025;-71
2022/05/31 12:28:16;;;;;;;4.32;1.88;;;16.80;89.30;;;;;;5097387;28;20036;-70
2022/05/31 12:30:55;;;;;;;6.90;3.22;;;16.70;88.70;;;;;;5099506;28;20038;-70
2022/05/31 12:33:46;;;;;;;4.95;2.70;;;16.50;89.70;;;;;;5083759;28;20012;-71
2022/05/31 12:36:19;;;;;;;4.55;2.25;;;16.50;89.90;;;;;;5082249;28;20028;-69
2022/05/31 12:39:19;;;;;;;6.65;2.45;;;16.60;90.20;;;;;;5082478;28;20029;-69
2022/05/31 12:41:46;;;;;;;6.10;2.17;;;16.80;90.20;;;;;;5082459;28;20024;-71
2022/05/31 12:44:16;;;;;;;7.43;2.58;;;17.10;88.50;;;;;;5065830;28;20025;-69
2022/05/31 12:46:47;;;;;;;4.03;2.05;;;17.10;88.50;;;;;;5089790;28;20035;-69
2022/05/31 12:49:28;;;;;;;4.18;1.27;;;17.10;87.30;;;;;;5102437;28;20024;-69
2022/05/31 12:55:12;;;;;;;6.43;1.80;;;17.50;85.20;;;;;;5078227;28;20024;-71
2022/05/31 13:00:49;;;;;;;8.63;2.35;;;17.90;83.90;;;;;;5082584;28;20028;-70
2022/05/31 13:03:55;;;;;;;7.85;1.80;;;18.10;85.50;;;;;;5082270;28;20028;-70
2022/05/31 13:07:00;;;;;;;9.60;2.88;;;17.80;85.50;;;;;;5069181;28;20114;-70
2022/05/31 13:09:37;;;;;;;6.40;2.25;;;17.50;85.70;;;;;;5071022;28;20028;-68
2022/05/31 13:20:43;;;;;;;5.30;1.30;;;16.30;86.90;;;;;;5068576;28;20016;-69
2022/05/31 13:23:17;;;;;;;6.95;2.45;;;16.30;86.50;;;;;;5082039;28;20087;-70
2022/05/31 13:25:58;;;;;;;7.30;1.70;;;16.30;87.90;;;;;;5082516;28;20017;-69
2022/05/31 13:28:34;;;;;;;2.38;1.23;;;16.40;86.20;;;;;;5105249;28;20050;-70
2022/05/31 13:31:21;;;;;;;4.28;1.40;;;16.30;85.10;;;;;;5123855;28;20051;-70
2022/05/31 13:34:08;;;;;;;3.03;1.20;;;16.30;84.20;;;;;;5091813;28;20039;-70
2022/05/31 13:36:45;;;;;;;3.45;1.65;;;16.20;84.10;;;;;;5108623;28;20031;-70
2022/05/31 13:39:13;;;;;;;4.97;1.40;;;16.30;85.30;;;;;;5122501;28;20015;-70
2022/05/31 13:41:58;;;;;;;11.27;2.30;;;16.20;85.60;;;;;;5105915;28;20027;-71
2022/05/31 13:44:33;;;;;;;6.07;2.03;;;16.40;85.50;;;;;;5122622;28;20015;-70
2022/05/31 13:47:03;;;;;;;5.32;1.63;;;16.60;84.40;;;;;;5075209;28;20311;-69
2022/05/31 13:49:45;;;;;;;5.35;2.08;;;16.70;84.30;;;;;;5081847;28;20013;-70
2022/05/31 13:52:31;;;;;;;10.85;1.50;;;16.90;85.70;;;;;;5081938;28;20040;-71
2022/05/31 13:55:11;;;;;;;5.07;1.80;;;17.00;84.70;;;;;;5082963;28;20023;-70
2022/05/31 13:57:37;;;;;;;6.10;1.65;;;16.90;86.40;;;;;;5101943;28;20020;-70
2022/05/31 14:00:07;;;;;;;4.25;1.30;;;17.00;87.00;;;;;;5105690;28;20114;-71
2022/05/31 14:02:53;;;;;;;11.50;2.08;;;16.90;86.10;;;;;;5105717;28;20031;-70